Wing, Alabama
Current Conditions -  °F | °C
As of 11:34 PM on Sunday 21 Dec 2014 (Local Time) from K0J4 Reporting Station
Haze Haze  
Wind Chill: 54°   Ceiling: 200
Heat Index: 54°   Visibility: 0.75mi
Dew Point: 52°   Wind: 5mph
Humidity: 94%   Direction: 100°E
Pressure: 30.01"   Gusts: NA
Location:  31.03°N, 86.61°W
Report Text: K0J4 220534Z AUTO 10004KT 3/4SM BR VV002 12/11 A3001 RMK AO2 $
Loading
Personal Weather Stations






























Interactive Weather Map New forecast layout! Learn more

10-Day Weather Forecast

Advertisements
Track Severe Weather on mobile